sensor_id;sensor_type;location;lat;lon;timestamp;P1;durP1;ratioP1;P2;durP2;ratioP2
51995;SDS011;38010;53.264;6.592;2022-11-15T00:00:49;2.90;;;2.70;;
51995;SDS011;38010;53.264;6.592;2022-11-15T00:03:19;3.20;;;2.90;;
51995;SDS011;38010;53.264;6.592;2022-11-15T00:05:47;3.25;;;2.90;;
51995;SDS011;38010;53.264;6.592;2022-11-15T00:08:13;3.00;;;2.70;;
51995;SDS011;38010;53.264;6.592;2022-11-15T00:10:39;3.50;;;3.00;;
51995;SDS011;38010;53.264;6.592;2022-11-15T00:13:08;3.05;;;2.75;;
51995;SDS011;38010;53.264;6.592;2022-11-15T00:15:36;3.25;;;2.92;;
51995;SDS011;38010;53.264;6.592;2022-11-15T00:18:04;3.03;;;2.67;;
51995;SDS011;38010;53.264;6.592;2022-11-15T00:20:30;2.75;;;2.55;;
51995;SDS011;38010;53.264;6.592;2022-11-15T00:22:56;3.13;;;2.83;;
51995;SDS011;38010;53.264;6.592;2022-11-15T00:25:21;2.97;;;2.72;;
51995;SDS011;38010;53.264;6.592;2022-11-15T00:27:47;3.25;;;2.95;;
51995;SDS011;38010;53.264;6.592;2022-11-15T00:30:13;3.55;;;2.70;;
51995;SDS011;38010;53.264;6.592;2022-11-15T00:32:38;2.92;;;2.65;;
51995;SDS011;38010;53.264;6.592;2022-11-15T00:35:04;2.78;;;2.55;;
51995;SDS011;38010;53.264;6.592;2022-11-15T00:37:30;3.20;;;2.90;;
51995;SDS011;38010;53.264;6.592;2022-11-15T00:39:56;2.92;;;2.67;;
51995;SDS011;38010;53.264;6.592;2022-11-15T00:42:21;3.20;;;2.90;;
51995;SDS011;38010;53.264;6.592;2022-11-15T00:44:47;2.97;;;2.67;;
51995;SDS011;38010;53.264;6.592;2022-11-15T00:47:12;2.80;;;2.53;;
51995;SDS011;38010;53.264;6.592;2022-11-15T00:49:38;2.78;;;2.58;;
51995;SDS011;38010;53.264;6.592;2022-11-15T00:52:04;2.60;;;2.40;;
51995;SDS011;38010;53.264;6.592;2022-11-15T00:54:29;2.50;;;2.30;;
51995;SDS011;38010;53.264;6.592;2022-11-15T00:56:55;2.63;;;2.42;;
51995;SDS011;38010;53.264;6.592;2022-11-15T00:59:21;3.05;;;2.75;;
51995;SDS011;38010;53.264;6.592;2022-11-15T01:01:46;2.83;;;2.50;;
51995;SDS011;38010;53.264;6.592;2022-11-15T01:04:12;2.95;;;2.65;;
51995;SDS011;38010;53.264;6.592;2022-11-15T01:06:38;2.75;;;2.55;;
51995;SDS011;38010;53.264;6.592;2022-11-15T01:09:04;2.70;;;2.50;;
51995;SDS011;38010;53.264;6.592;2022-11-15T01:11:29;3.55;;;2.78;;
51995;SDS011;38010;53.264;6.592;2022-11-15T01:13:55;2.95;;;2.60;;
51995;SDS011;38010;53.264;6.592;2022-11-15T01:16:21;2.70;;;2.50;;
51995;SDS011;38010;53.264;6.592;2022-11-15T01:18:46;3.00;;;2.70;;
51995;SDS011;38010;53.264;6.592;2022-11-15T01:21:13;2.60;;;2.40;;
51995;SDS011;38010;53.264;6.592;2022-11-15T01:23:40;2.53;;;2.33;;
51995;SDS011;38010;53.264;6.592;2022-11-15T01:26:07;2.60;;;2.40;;
51995;SDS011;38010;53.264;6.592;2022-11-15T01:28:36;2.90;;;2.50;;
51995;SDS011;38010;53.264;6.592;2022-11-15T01:31:04;2.42;;;2.22;;
51995;SDS011;38010;53.264;6.592;2022-11-15T01:33:34;2.67;;;2.47;;
51995;SDS011;38010;53.264;6.592;2022-11-15T01:36:07;2.45;;;2.25;;
51995;SDS011;38010;53.264;6.592;2022-11-15T01:38:36;2.60;;;2.40;;
51995;SDS011;38010;53.264;6.592;2022-11-15T01:41:02;2.60;;;2.40;;
51995;SDS011;38010;53.264;6.592;2022-11-15T01:43:32;2.33;;;2.13;;
51995;SDS011;38010;53.264;6.592;2022-11-15T01:46:21;2.72;;;2.53;;
51995;SDS011;38010;53.264;6.592;2022-11-15T01:48:52;2.75;;;2.50;;
51995;SDS011;38010;53.264;6.592;2022-11-15T01:51:20;2.45;;;2.15;;
51995;SDS011;38010;53.264;6.592;2022-11-15T01:53:49;2.42;;;2.22;;
51995;SDS011;38010;53.264;6.592;2022-11-15T01:56:21;2.53;;;2.33;;
51995;SDS011;38010;53.264;6.592;2022-11-15T01:58:50;2.53;;;2.33;;
51995;SDS011;38010;53.264;6.592;2022-11-15T02:01:17;2.38;;;2.17;;
51995;SDS011;38010;53.264;6.592;2022-11-15T02:03:46;2.72;;;2.40;;
51995;SDS011;38010;53.264;6.592;2022-11-15T02:06:16;2.60;;;2.40;;
51995;SDS011;38010;53.264;6.592;2022-11-15T02:08:44;2.35;;;2.15;;
51995;SDS011;38010;53.264;6.592;2022-11-15T02:11:10;2.67;;;2.47;;
51995;SDS011;38010;53.264;6.592;2022-11-15T02:13:36;3.17;;;2.85;;
51995;SDS011;38010;53.264;6.592;2022-11-15T02:19:00;2.40;;;2.13;;
51995;SDS011;38010;53.264;6.592;2022-11-15T02:22:00;3.05;;;2.50;;
51995;SDS011;38010;53.264;6.592;2022-11-15T02:35:35;2.53;;;2.13;;
51995;SDS011;38010;53.264;6.592;2022-11-15T02:40:59;2.25;;;2.05;;
51995;SDS011;38010;53.264;6.592;2022-11-15T02:43:31;2.55;;;2.33;;
51995;SDS011;38010;53.264;6.592;2022-11-15T02:46:38;2.50;;;2.05;;
51995;SDS011;38010;53.264;6.592;2022-11-15T02:49:33;2.30;;;2.00;;
51995;SDS011;38010;53.264;6.592;2022-11-15T02:52:02;2.38;;;2.13;;
51995;SDS011;38010;53.264;6.592;2022-11-15T02:54:29;2.22;;;2.03;;
51995;SDS011;38010;53.264;6.592;2022-11-15T02:56:59;2.53;;;2.33;;
51995;SDS011;38010;53.264;6.592;2022-11-15T03:04:56;2.35;;;2.15;;
51995;SDS011;38010;53.264;6.592;2022-11-15T03:07:36;1.95;;;1.80;;
51995;SDS011;38010;53.264;6.592;2022-11-15T03:13:20;2.30;;;1.80;;
51995;SDS011;38010;53.264;6.592;2022-11-15T03:18:56;2.15;;;1.98;;
51995;SDS011;38010;53.264;6.592;2022-11-15T03:21:43;2.42;;;2.10;;
51995;SDS011;38010;53.264;6.592;2022-11-15T03:24:11;2.40;;;2.08;;
51995;SDS011;38010;53.264;6.592;2022-11-15T03:26:39;1.80;;;1.70;;
51995;SDS011;38010;53.264;6.592;2022-11-15T03:29:10;2.38;;;2.17;;
51995;SDS011;38010;53.264;6.592;2022-11-15T03:31:46;2.55;;;2.10;;
51995;SDS011;38010;53.264;6.592;2022-11-15T03:34:32;2.20;;;2.00;;
51995;SDS011;38010;53.264;6.592;2022-11-15T03:37:00;2.40;;;2.05;;
51995;SDS011;38010;53.264;6.592;2022-11-15T03:39:26;2.47;;;2.28;;
51995;SDS011;38010;53.264;6.592;2022-11-15T03:44:34;2.25;;;1.90;;
51995;SDS011;38010;53.264;6.592;2022-11-15T03:47:16;2.75;;;2.00;;
51995;SDS011;38010;53.264;6.592;2022-11-15T03:49:59;2.40;;;2.20;;
51995;SDS011;38010;53.264;6.592;2022-11-15T03:52:34;2.60;;;2.20;;
51995;SDS011;38010;53.264;6.592;2022-11-15T03:55:01;2.45;;;2.13;;
51995;SDS011;38010;53.264;6.592;2022-11-15T03:57:28;2.00;;;1.67;;
51995;SDS011;38010;53.264;6.592;2022-11-15T03:59:54;2.10;;;1.90;;
51995;SDS011;38010;53.264;6.592;2022-11-15T04:02:19;2.20;;;2.00;;
51995;SDS011;38010;53.264;6.592;2022-11-15T04:04:45;2.65;;;2.20;;
51995;SDS011;38010;53.264;6.592;2022-11-15T04:07:11;2.42;;;2.00;;
51995;SDS011;38010;53.264;6.592;2022-11-15T04:09:37;2.22;;;2.00;;
51995;SDS011;38010;53.264;6.592;2022-11-15T04:12:21;2.22;;;2.03;;
51995;SDS011;38010;53.264;6.592;2022-11-15T04:15:06;2.42;;;2.22;;
51995;SDS011;38010;53.264;6.592;2022-11-15T04:17:38;2.72;;;2.10;;
51995;SDS011;38010;53.264;6.592;2022-11-15T04:20:18;2.90;;;2.10;;
51995;SDS011;38010;53.264;6.592;2022-11-15T04:23:25;1.83;;;1.67;;
51995;SDS011;38010;53.264;6.592;2022-11-15T04:26:16;2.85;;;2.10;;
51995;SDS011;38010;53.264;6.592;2022-11-15T04:28:44;2.33;;;2.13;;
51995;SDS011;38010;53.264;6.592;2022-11-15T04:31:28;2.65;;;1.98;;
51995;SDS011;38010;53.264;6.592;2022-11-15T04:33:54;2.00;;;1.80;;
51995;SDS011;38010;53.264;6.592;2022-11-15T04:36:20;2.10;;;1.90;;
51995;SDS011;38010;53.264;6.592;2022-11-15T04:39:05;2.80;;;2.13;;
51995;SDS011;38010;53.264;6.592;2022-11-15T04:41:30;1.92;;;1.73;;
51995;SDS011;38010;53.264;6.592;2022-11-15T04:43:56;2.33;;;2.05;;
51995;SDS011;38010;53.264;6.592;2022-11-15T04:46:22;2.60;;;2.10;;
51995;SDS011;38010;53.264;6.592;2022-11-15T04:48:48;2.55;;;1.95;;
51995;SDS011;38010;53.264;6.592;2022-11-15T04:51:14;1.75;;;1.65;;
51995;SDS011;38010;53.264;6.592;2022-11-15T04:53:40;2.08;;;1.88;;
51995;SDS011;38010;53.264;6.592;2022-11-15T04:56:06;2.22;;;1.85;;
51995;SDS011;38010;53.264;6.592;2022-11-15T04:58:31;2.45;;;1.90;;
51995;SDS011;38010;53.264;6.592;2022-11-15T05:00:57;2.08;;;1.80;;
51995;SDS011;38010;53.264;6.592;2022-11-15T05:03:23;1.95;;;1.73;;
51995;SDS011;38010;53.264;6.592;2022-11-15T05:06:07;2.10;;;1.90;;
51995;SDS011;38010;53.264;6.592;2022-11-15T05:08:33;2.30;;;2.10;;
51995;SDS011;38010;53.264;6.592;2022-11-15T05:10:59;2.25;;;2.03;;
51995;SDS011;38010;53.264;6.592;2022-11-15T05:13:24;2.17;;;1.95;;
51995;SDS011;38010;53.264;6.592;2022-11-15T05:15:50;2.60;;;2.13;;
51995;SDS011;38010;53.264;6.592;2022-11-15T05:18:16;3.17;;;2.20;;
51995;SDS011;38010;53.264;6.592;2022-11-15T05:20:41;3.00;;;2.08;;
51995;SDS011;38010;53.264;6.592;2022-11-15T05:23:07;2.35;;;1.88;;
51995;SDS011;38010;53.264;6.592;2022-11-15T05:25:33;2.63;;;2.22;;
51995;SDS011;38010;53.264;6.592;2022-11-15T05:28:00;2.30;;;1.88;;
51995;SDS011;38010;53.264;6.592;2022-11-15T05:30:26;2.00;;;1.80;;
51995;SDS011;38010;53.264;6.592;2022-11-15T05:32:51;2.38;;;1.95;;
51995;SDS011;38010;53.264;6.592;2022-11-15T05:35:20;2.92;;;1.95;;
51995;SDS011;38010;53.264;6.592;2022-11-15T05:37:54;2.03;;;1.83;;
51995;SDS011;38010;53.264;6.592;2022-11-15T05:40:20;2.10;;;1.90;;
51995;SDS011;38010;53.264;6.592;2022-11-15T05:42:46;2.15;;;1.83;;
51995;SDS011;38010;53.264;6.592;2022-11-15T05:45:12;3.28;;;2.05;;
51995;SDS011;38010;53.264;6.592;2022-11-15T05:47:39;2.95;;;2.30;;
51995;SDS011;38010;53.264;6.592;2022-11-15T05:50:05;2.83;;;1.98;;
51995;SDS011;38010;53.264;6.592;2022-11-15T05:52:33;2.38;;;1.80;;
51995;SDS011;38010;53.264;6.592;2022-11-15T05:55:01;2.30;;;1.98;;
51995;SDS011;38010;53.264;6.592;2022-11-15T05:57:29;2.97;;;2.00;;
51995;SDS011;38010;53.264;6.592;2022-11-15T05:59:55;2.10;;;1.90;;
51995;SDS011;38010;53.264;6.592;2022-11-15T06:02:21;2.58;;;2.10;;
51995;SDS011;38010;53.264;6.592;2022-11-15T06:04:46;2.38;;;1.80;;
51995;SDS011;38010;53.264;6.592;2022-11-15T06:07:12;2.53;;;1.95;;
51995;SDS011;38010;53.264;6.592;2022-11-15T06:09:38;3.08;;;2.60;;
51995;SDS011;38010;53.264;6.592;2022-11-15T06:12:03;2.47;;;1.92;;
51995;SDS011;38010;53.264;6.592;2022-11-15T06:14:29;3.30;;;1.98;;
51995;SDS011;38010;53.264;6.592;2022-11-15T06:16:55;2.40;;;1.70;;
51995;SDS011;38010;53.264;6.592;2022-11-15T06:19:20;2.83;;;2.10;;
51995;SDS011;38010;53.264;6.592;2022-11-15T06:21:46;2.78;;;1.70;;
51995;SDS011;38010;53.264;6.592;2022-11-15T06:24:12;2.95;;;2.08;;
51995;SDS011;38010;53.264;6.592;2022-11-15T06:26:37;3.08;;;2.33;;
51995;SDS011;38010;53.264;6.592;2022-11-15T06:29:03;2.53;;;2.03;;
51995;SDS011;38010;53.264;6.592;2022-11-15T06:31:29;2.03;;;1.80;;
51995;SDS011;38010;53.264;6.592;2022-11-15T06:33:55;3.33;;;2.33;;
51995;SDS011;38010;53.264;6.592;2022-11-15T06:36:21;2.53;;;2.28;;
51995;SDS011;38010;53.264;6.592;2022-11-15T06:38:46;3.60;;;2.35;;
51995;SDS011;38010;53.264;6.592;2022-11-15T06:41:13;3.75;;;2.47;;
51995;SDS011;38010;53.264;6.592;2022-11-15T06:43:39;3.38;;;2.20;;
51995;SDS011;38010;53.264;6.592;2022-11-15T06:46:05;3.55;;;2.70;;
51995;SDS011;38010;53.264;6.592;2022-11-15T06:48:32;2.75;;;2.33;;
51995;SDS011;38010;53.264;6.592;2022-11-15T06:50:59;3.20;;;2.30;;
51995;SDS011;38010;53.264;6.592;2022-11-15T06:53:26;3.15;;;2.13;;
51995;SDS011;38010;53.264;6.592;2022-11-15T06:55:52;3.15;;;2.63;;
51995;SDS011;38010;53.264;6.592;2022-11-15T06:58:20;4.45;;;2.88;;
51995;SDS011;38010;53.264;6.592;2022-11-15T07:00:46;6.20;;;3.00;;
51995;SDS011;38010;53.264;6.592;2022-11-15T07:03:11;3.70;;;2.90;;
51995;SDS011;38010;53.264;6.592;2022-11-15T07:05:37;3.05;;;2.72;;
51995;SDS011;38010;53.264;6.592;2022-11-15T07:08:03;5.60;;;3.10;;
51995;SDS011;38010;53.264;6.592;2022-11-15T07:10:29;3.97;;;2.72;;
51995;SDS011;38010;53.264;6.592;2022-11-15T07:12:55;5.07;;;3.38;;
51995;SDS011;38010;53.264;6.592;2022-11-15T07:15:22;4.25;;;2.70;;
51995;SDS011;38010;53.264;6.592;2022-11-15T07:17:49;4.18;;;2.72;;
51995;SDS011;38010;53.264;6.592;2022-11-15T07:20:15;4.15;;;2.85;;
51995;SDS011;38010;53.264;6.592;2022-11-15T07:22:41;3.92;;;2.80;;
51995;SDS011;38010;53.264;6.592;2022-11-15T07:25:08;3.33;;;2.83;;
51995;SDS011;38010;53.264;6.592;2022-11-15T07:27:34;3.85;;;2.97;;
51995;SDS011;38010;53.264;6.592;2022-11-15T07:30:00;3.72;;;2.78;;
51995;SDS011;38010;53.264;6.592;2022-11-15T07:32:26;4.00;;;2.90;;
51995;SDS011;38010;53.264;6.592;2022-11-15T07:34:51;3.22;;;2.70;;
51995;SDS011;38010;53.264;6.592;2022-11-15T07:37:17;3.05;;;2.70;;
51995;SDS011;38010;53.264;6.592;2022-11-15T07:39:43;3.42;;;2.90;;
51995;SDS011;38010;53.264;6.592;2022-11-15T07:42:09;3.17;;;2.50;;
51995;SDS011;38010;53.264;6.592;2022-11-15T07:44:53;3.75;;;2.97;;
51995;SDS011;38010;53.264;6.592;2022-11-15T07:47:18;2.75;;;2.53;;
51995;SDS011;38010;53.264;6.592;2022-11-15T07:49:45;3.80;;;2.88;;
51995;SDS011;38010;53.264;6.592;2022-11-15T07:52:11;3.63;;;2.42;;
51995;SDS011;38010;53.264;6.592;2022-11-15T07:54:38;3.83;;;2.78;;
51995;SDS011;38010;53.264;6.592;2022-11-15T07:57:04;3.90;;;2.70;;
51995;SDS011;38010;53.264;6.592;2022-11-15T07:59:30;3.13;;;2.50;;
51995;SDS011;38010;53.264;6.592;2022-11-15T08:01:56;3.25;;;2.60;;
51995;SDS011;38010;53.264;6.592;2022-11-15T08:04:22;3.55;;;2.80;;
51995;SDS011;38010;53.264;6.592;2022-11-15T08:06:47;3.75;;;2.70;;
51995;SDS011;38010;53.264;6.592;2022-11-15T08:09:13;3.53;;;2.65;;
51995;SDS011;38010;53.264;6.592;2022-11-15T08:11:39;3.65;;;2.60;;
51995;SDS011;38010;53.264;6.592;2022-11-15T08:14:04;2.75;;;2.25;;
51995;SDS011;38010;53.264;6.592;2022-11-15T08:16:30;2.90;;;2.58;;
51995;SDS011;38010;53.264;6.592;2022-11-15T08:18:56;2.65;;;2.40;;
51995;SDS011;38010;53.264;6.592;2022-11-15T08:21:21;4.03;;;2.70;;
51995;SDS011;38010;53.264;6.592;2022-11-15T08:23:47;3.88;;;2.80;;
51995;SDS011;38010;53.264;6.592;2022-11-15T08:26:13;4.15;;;2.88;;
51995;SDS011;38010;53.264;6.592;2022-11-15T08:28:39;3.65;;;2.72;;
51995;SDS011;38010;53.264;6.592;2022-11-15T08:31:06;3.72;;;2.83;;
51995;SDS011;38010;53.264;6.592;2022-11-15T08:33:37;3.35;;;2.28;;
51995;SDS011;38010;53.264;6.592;2022-11-15T08:36:03;3.33;;;2.47;;
51995;SDS011;38010;53.264;6.592;2022-11-15T08:38:29;3.80;;;2.67;;
51995;SDS011;38010;53.264;6.592;2022-11-15T08:40:59;2.75;;;2.45;;
51995;SDS011;38010;53.264;6.592;2022-11-15T08:43:26;3.65;;;2.95;;
51995;SDS011;38010;53.264;6.592;2022-11-15T08:45:55;2.95;;;2.55;;
51995;SDS011;38010;53.264;6.592;2022-11-15T08:48:21;3.97;;;2.78;;
51995;SDS011;38010;53.264;6.592;2022-11-15T08:50:47;2.58;;;2.08;;
51995;SDS011;38010;53.264;6.592;2022-11-15T08:53:13;3.67;;;2.42;;
51995;SDS011;38010;53.264;6.592;2022-11-15T08:55:39;3.38;;;2.38;;
51995;SDS011;38010;53.264;6.592;2022-11-15T08:58:06;2.40;;;2.13;;
51995;SDS011;38010;53.264;6.592;2022-11-15T09:00:32;2.80;;;2.28;;
51995;SDS011;38010;53.264;6.592;2022-11-15T09:02:58;3.58;;;2.45;;
51995;SDS011;38010;53.264;6.592;2022-11-15T09:05:24;3.15;;;2.55;;
51995;SDS011;38010;53.264;6.592;2022-11-15T09:07:53;2.60;;;2.25;;
51995;SDS011;38010;53.264;6.592;2022-11-15T09:10:20;2.13;;;1.88;;
51995;SDS011;38010;53.264;6.592;2022-11-15T09:12:46;2.72;;;2.42;;
51995;SDS011;38010;53.264;6.592;2022-11-15T09:15:13;2.50;;;2.30;;
51995;SDS011;38010;53.264;6.592;2022-11-15T09:17:40;2.50;;;2.20;;
51995;SDS011;38010;53.264;6.592;2022-11-15T09:20:06;3.03;;;2.25;;
51995;SDS011;38010;53.264;6.592;2022-11-15T09:22:33;2.97;;;2.33;;
51995;SDS011;38010;53.264;6.592;2022-11-15T09:24:59;2.92;;;2.53;;
51995;SDS011;38010;53.264;6.592;2022-11-15T09:27:29;2.42;;;2.00;;
51995;SDS011;38010;53.264;6.592;2022-11-15T09:29:55;3.55;;;2.40;;
51995;SDS011;38010;53.264;6.592;2022-11-15T09:32:21;2.45;;;2.00;;
51995;SDS011;38010;53.264;6.592;2022-11-15T09:34:48;2.63;;;2.35;;
51995;SDS011;38010;53.264;6.592;2022-11-15T09:37:14;3.60;;;2.33;;
51995;SDS011;38010;53.264;6.592;2022-11-15T09:39:40;2.55;;;2.08;;
51995;SDS011;38010;53.264;6.592;2022-11-15T09:50:32;2.20;;;2.00;;
51995;SDS011;38010;53.264;6.592;2022-11-15T09:53:03;2.78;;;2.15;;
51995;SDS011;38010;53.264;6.592;2022-11-15T09:55:34;2.83;;;2.53;;
51995;SDS011;38010;53.264;6.592;2022-11-15T09:58:26;3.30;;;2.23;;
51995;SDS011;38010;53.264;6.592;2022-11-15T10:01:16;2.72;;;2.03;;
51995;SDS011;38010;53.264;6.592;2022-11-15T10:03:50;1.95;;;1.75;;
51995;SDS011;38010;53.264;6.592;2022-11-15T10:06:23;2.38;;;2.10;;
51995;SDS011;38010;53.264;6.592;2022-11-15T10:08:51;2.13;;;1.75;;
51995;SDS011;38010;53.264;6.592;2022-11-15T10:11:24;2.10;;;1.80;;
51995;SDS011;38010;53.264;6.592;2022-11-15T10:13:56;2.70;;;2.20;;
51995;SDS011;38010;53.264;6.592;2022-11-15T10:16:38;1.90;;;1.70;;
51995;SDS011;38010;53.264;6.592;2022-11-15T10:28:17;2.92;;;1.90;;
51995;SDS011;38010;53.264;6.592;2022-11-15T10:30:46;1.90;;;1.70;;
51995;SDS011;38010;53.264;6.592;2022-11-15T10:33:19;2.13;;;1.55;;
51995;SDS011;38010;53.264;6.592;2022-11-15T10:36:14;2.00;;;1.67;;
51995;SDS011;38010;53.264;6.592;2022-11-15T10:41:16;1.70;;;1.42;;
51995;SDS011;38010;53.264;6.592;2022-11-15T10:43:45;2.38;;;1.80;;
51995;SDS011;38010;53.264;6.592;2022-11-15T10:46:32;2.83;;;1.67;;
51995;SDS011;38010;53.264;6.592;2022-11-15T10:49:18;1.77;;;1.55;;
51995;SDS011;38010;53.264;6.592;2022-11-15T10:54:42;2.58;;;1.80;;
51995;SDS011;38010;53.264;6.592;2022-11-15T10:57:14;5.25;;;1.83;;
51995;SDS011;38010;53.264;6.592;2022-11-15T10:59:44;3.15;;;2.03;;
51995;SDS011;38010;53.264;6.592;2022-11-15T11:02:32;2.58;;;1.65;;
51995;SDS011;38010;53.264;6.592;2022-11-15T11:05:04;5.47;;;2.00;;
51995;SDS011;38010;53.264;6.592;2022-11-15T11:07:48;8.07;;;2.10;;
51995;SDS011;38010;53.264;6.592;2022-11-15T11:10:22;5.60;;;1.90;;
51995;SDS011;38010;53.264;6.592;2022-11-15T11:12:48;5.88;;;2.17;;
51995;SDS011;38010;53.264;6.592;2022-11-15T11:15:14;7.15;;;2.22;;
51995;SDS011;38010;53.264;6.592;2022-11-15T11:25:35;3.78;;;2.05;;
51995;SDS011;38010;53.264;6.592;2022-11-15T11:41:38;4.18;;;1.10;;
51995;SDS011;38010;53.264;6.592;2022-11-15T11:44:38;4.13;;;1.65;;
51995;SDS011;38010;53.264;6.592;2022-11-15T11:47:28;3.58;;;1.20;;
51995;SDS011;38010;53.264;6.592;2022-11-15T11:55:28;3.75;;;1.27;;
51995;SDS011;38010;53.264;6.592;2022-11-15T11:58:20;4.07;;;1.25;;
51995;SDS011;38010;53.264;6.592;2022-11-15T12:08:59;3.13;;;1.20;;
51995;SDS011;38010;53.264;6.592;2022-11-15T12:14:27;3.30;;;1.10;;
51995;SDS011;38010;53.264;6.592;2022-11-15T12:17:01;2.17;;;1.05;;
51995;SDS011;38010;53.264;6.592;2022-11-15T12:19:27;2.17;;;1.00;;
51995;SDS011;38010;53.264;6.592;2022-11-15T12:24:39;2.00;;;1.00;;
51995;SDS011;38010;53.264;6.592;2022-11-15T12:27:16;7.80;;;1.30;;
51995;SDS011;38010;53.264;6.592;2022-11-15T12:29:44;4.00;;;1.30;;
51995;SDS011;38010;53.264;6.592;2022-11-15T12:32:36;4.07;;;1.10;;
51995;SDS011;38010;53.264;6.592;2022-11-15T12:35:05;1.67;;;1.20;;
51995;SDS011;38010;53.264;6.592;2022-11-15T12:37:47;3.78;;;1.13;;
51995;SDS011;38010;53.264;6.592;2022-11-15T12:45:40;4.35;;;1.10;;
51995;SDS011;38010;53.264;6.592;2022-11-15T12:58:52;2.17;;;1.08;;
51995;SDS011;38010;53.264;6.592;2022-11-15T13:06:45;1.33;;;0.90;;
51995;SDS011;38010;53.264;6.592;2022-11-15T13:11:58;0.98;;;0.80;;
51995;SDS011;38010;53.264;6.592;2022-11-15T13:14:45;1.73;;;1.00;;
51995;SDS011;38010;53.264;6.592;2022-11-15T13:19:46;1.45;;;0.80;;
51995;SDS011;38010;53.264;6.592;2022-11-15T13:22:13;0.75;;;0.68;;
51995;SDS011;38010;53.264;6.592;2022-11-15T13:25:01;1.20;;;0.80;;
51995;SDS011;38010;53.264;6.592;2022-11-15T13:27:27;1.02;;;0.88;;
51995;SDS011;38010;53.264;6.592;2022-11-15T13:29:54;0.93;;;0.77;;
51995;SDS011;38010;53.264;6.592;2022-11-15T13:32:19;1.77;;;0.85;;
51995;SDS011;38010;53.264;6.592;2022-11-15T13:34:47;1.63;;;0.60;;
51995;SDS011;38010;53.264;6.592;2022-11-15T13:39:45;1.27;;;0.82;;
51995;SDS011;38010;53.264;6.592;2022-11-15T13:42:16;0.70;;;0.70;;
51995;SDS011;38010;53.264;6.592;2022-11-15T13:45:03;1.13;;;0.88;;
51995;SDS011;38010;53.264;6.592;2022-11-15T13:47:30;1.02;;;0.90;;
51995;SDS011;38010;53.264;6.592;2022-11-15T13:49:57;1.17;;;0.77;;
51995;SDS011;38010;53.264;6.592;2022-11-15T13:52:34;1.95;;;0.73;;
51995;SDS011;38010;53.264;6.592;2022-11-15T13:55:09;0.95;;;0.65;;
51995;SDS011;38010;53.264;6.592;2022-11-15T13:57:42;0.65;;;0.57;;
51995;SDS011;38010;53.264;6.592;2022-11-15T14:00:24;1.75;;;0.82;;
51995;SDS011;38010;53.264;6.592;2022-11-15T14:02:55;1.88;;;0.70;;
51995;SDS011;38010;53.264;6.592;2022-11-15T14:05:30;1.65;;;0.90;;
51995;SDS011;38010;53.264;6.592;2022-11-15T14:08:01;2.63;;;0.60;;
51995;SDS011;38010;53.264;6.592;2022-11-15T14:10:37;1.05;;;0.50;;
51995;SDS011;38010;53.264;6.592;2022-11-15T14:13:04;0.68;;;0.65;;
51995;SDS011;38010;53.264;6.592;2022-11-15T14:15:36;0.77;;;0.70;;
51995;SDS011;38010;53.264;6.592;2022-11-15T14:18:04;0.82;;;0.60;;
51995;SDS011;38010;53.264;6.592;2022-11-15T14:20:32;1.02;;;0.60;;
51995;SDS011;38010;53.264;6.592;2022-11-15T14:23:04;1.30;;;0.50;;
51995;SDS011;38010;53.264;6.592;2022-11-15T14:25:31;0.57;;;0.57;;
51995;SDS011;38010;53.264;6.592;2022-11-15T14:28:27;1.10;;;0.68;;
51995;SDS011;38010;53.264;6.592;2022-11-15T14:30:56;0.68;;;0.60;;
51995;SDS011;38010;53.264;6.592;2022-11-15T14:36:04;1.00;;;0.60;;
51995;SDS011;38010;53.264;6.592;2022-11-15T14:38:31;0.57;;;0.57;;
51995;SDS011;38010;53.264;6.592;2022-11-15T14:40:57;0.68;;;0.57;;
51995;SDS011;38010;53.264;6.592;2022-11-15T14:43:23;0.85;;;0.68;;
51995;SDS011;38010;53.264;6.592;2022-11-15T14:45:49;0.50;;;0.50;;
51995;SDS011;38010;53.264;6.592;2022-11-15T14:48:15;1.08;;;0.50;;
51995;SDS011;38010;53.264;6.592;2022-11-15T14:50:40;0.40;;;0.40;;
51995;SDS011;38010;53.264;6.592;2022-11-15T14:53:06;0.80;;;0.52;;
51995;SDS011;38010;53.264;6.592;2022-11-15T14:55:36;0.50;;;0.50;;
51995;SDS011;38010;53.264;6.592;2022-11-15T14:58:02;0.70;;;0.50;;
51995;SDS011;38010;53.264;6.592;2022-11-15T15:00:32;0.45;;;0.45;;
51995;SDS011;38010;53.264;6.592;2022-11-15T15:02:58;0.55;;;0.50;;
51995;SDS011;38010;53.264;6.592;2022-11-15T15:05:37;0.60;;;0.50;;
51995;SDS011;38010;53.264;6.592;2022-11-15T15:08:06;0.50;;;0.50;;
51995;SDS011;38010;53.264;6.592;2022-11-15T15:10:33;0.50;;;0.50;;
51995;SDS011;38010;53.264;6.592;2022-11-15T15:13:01;0.40;;;0.40;;
51995;SDS011;38010;53.264;6.592;2022-11-15T15:15:37;1.02;;;0.52;;
51995;SDS011;38010;53.264;6.592;2022-11-15T15:18:03;0.60;;;0.60;;
51995;SDS011;38010;53.264;6.592;2022-11-15T15:20:30;0.60;;;0.60;;
51995;SDS011;38010;53.264;6.592;2022-11-15T15:22:57;0.60;;;0.57;;
51995;SDS011;38010;53.264;6.592;2022-11-15T15:25:27;0.80;;;0.60;;
51995;SDS011;38010;53.264;6.592;2022-11-15T15:27:53;0.70;;;0.50;;
51995;SDS011;38010;53.264;6.592;2022-11-15T15:30:20;0.40;;;0.40;;
51995;SDS011;38010;53.264;6.592;2022-11-15T15:32:46;0.65;;;0.60;;
51995;SDS011;38010;53.264;6.592;2022-11-15T15:35:12;1.33;;;0.52;;
51995;SDS011;38010;53.264;6.592;2022-11-15T15:37:38;1.17;;;0.60;;
51995;SDS011;38010;53.264;6.592;2022-11-15T15:40:21;0.60;;;0.57;;
51995;SDS011;38010;53.264;6.592;2022-11-15T15:42:48;0.47;;;0.47;;
51995;SDS011;38010;53.264;6.592;2022-11-15T15:45:14;0.40;;;0.40;;
51995;SDS011;38010;53.264;6.592;2022-11-15T15:47:41;0.50;;;0.50;;
51995;SDS011;38010;53.264;6.592;2022-11-15T15:50:16;0.88;;;0.40;;
51995;SDS011;38010;53.264;6.592;2022-11-15T15:52:51;0.50;;;0.50;;
51995;SDS011;38010;53.264;6.592;2022-11-15T15:55:17;0.40;;;0.40;;
51995;SDS011;38010;53.264;6.592;2022-11-15T15:57:44;0.95;;;0.40;;
51995;SDS011;38010;53.264;6.592;2022-11-15T16:00:11;0.30;;;0.30;;
51995;SDS011;38010;53.264;6.592;2022-11-15T16:02:37;0.70;;;0.60;;
51995;SDS011;38010;53.264;6.592;2022-11-15T16:05:04;0.93;;;0.60;;
51995;SDS011;38010;53.264;6.592;2022-11-15T16:07:30;0.40;;;0.40;;
51995;SDS011;38010;53.264;6.592;2022-11-15T16:09:56;0.50;;;0.50;;
51995;SDS011;38010;53.264;6.592;2022-11-15T16:12:24;0.45;;;0.45;;
51995;SDS011;38010;53.264;6.592;2022-11-15T16:14:54;0.73;;;0.55;;
51995;SDS011;38010;53.264;6.592;2022-11-15T16:17:20;0.40;;;0.40;;
51995;SDS011;38010;53.264;6.592;2022-11-15T16:19:48;0.40;;;0.40;;
51995;SDS011;38010;53.264;6.592;2022-11-15T16:22:13;0.52;;;0.40;;
51995;SDS011;38010;53.264;6.592;2022-11-15T16:24:39;0.75;;;0.40;;
51995;SDS011;38010;53.264;6.592;2022-11-15T16:27:04;0.60;;;0.50;;
51995;SDS011;38010;53.264;6.592;2022-11-15T16:29:30;0.50;;;0.50;;
51995;SDS011;38010;53.264;6.592;2022-11-15T16:31:56;0.60;;;0.52;;
51995;SDS011;38010;53.264;6.592;2022-11-15T16:34:22;0.40;;;0.40;;
51995;SDS011;38010;53.264;6.592;2022-11-15T16:36:47;0.75;;;0.40;;
51995;SDS011;38010;53.264;6.592;2022-11-15T16:39:13;0.60;;;0.43;;
51995;SDS011;38010;53.264;6.592;2022-11-15T16:41:42;1.10;;;0.40;;
51995;SDS011;38010;53.264;6.592;2022-11-15T16:44:11;0.40;;;0.40;;
51995;SDS011;38010;53.264;6.592;2022-11-15T16:46:38;0.50;;;0.50;;
51995;SDS011;38010;53.264;6.592;2022-11-15T16:49:10;0.93;;;0.40;;
51995;SDS011;38010;53.264;6.592;2022-11-15T16:51:38;0.87;;;0.60;;
51995;SDS011;38010;53.264;6.592;2022-11-15T16:54:05;0.55;;;0.43;;
51995;SDS011;38010;53.264;6.592;2022-11-15T16:56:31;0.50;;;0.50;;
51995;SDS011;38010;53.264;6.592;2022-11-15T16:58:58;0.85;;;0.50;;
51995;SDS011;38010;53.264;6.592;2022-11-15T17:01:29;0.55;;;0.45;;
51995;SDS011;38010;53.264;6.592;2022-11-15T17:03:56;0.40;;;0.40;;
51995;SDS011;38010;53.264;6.592;2022-11-15T17:06:23;0.43;;;0.40;;
51995;SDS011;38010;53.264;6.592;2022-11-15T17:08:49;0.60;;;0.40;;